sensor_id;sensor_type;location;lat;lon;timestamp;P1;durP1;ratioP1;P2;durP2;ratioP2
39482;SDS011;25682;48.438;1.482;2023-02-28T00:00:01;11.15;;;2.83;;
39482;SDS011;25682;48.438;1.482;2023-02-28T00:02:34;3.85;;;2.00;;
39482;SDS011;25682;48.438;1.482;2023-02-28T00:05:01;6.10;;;2.72;;
39482;SDS011;25682;48.438;1.482;2023-02-28T00:07:28;5.40;;;2.30;;
39482;SDS011;25682;48.438;1.482;2023-02-28T00:09:54;6.18;;;2.50;;
39482;SDS011;25682;48.438;1.482;2023-02-28T00:12:20;4.78;;;2.67;;
39482;SDS011;25682;48.438;1.482;2023-02-28T00:14:46;4.68;;;2.20;;
39482;SDS011;25682;48.438;1.482;2023-02-28T00:17:11;7.82;;;2.25;;
39482;SDS011;25682;48.438;1.482;2023-02-28T00:19:37;3.92;;;2.28;;
39482;SDS011;25682;48.438;1.482;2023-02-28T00:22:02;4.63;;;2.95;;
39482;SDS011;25682;48.438;1.482;2023-02-28T00:24:28;3.88;;;2.42;;
39482;SDS011;25682;48.438;1.482;2023-02-28T00:26:54;4.40;;;2.25;;
39482;SDS011;25682;48.438;1.482;2023-02-28T00:29:19;3.40;;;2.08;;
39482;SDS011;25682;48.438;1.482;2023-02-28T00:31:45;5.82;;;2.67;;
39482;SDS011;25682;48.438;1.482;2023-02-28T00:34:10;4.20;;;2.60;;
39482;SDS011;25682;48.438;1.482;2023-02-28T00:36:36;5.05;;;2.38;;
39482;SDS011;25682;48.438;1.482;2023-02-28T00:39:02;4.93;;;2.55;;
39482;SDS011;25682;48.438;1.482;2023-02-28T00:41:27;6.07;;;2.22;;
39482;SDS011;25682;48.438;1.482;2023-02-28T00:43:53;4.28;;;2.30;;
39482;SDS011;25682;48.438;1.482;2023-02-28T00:46:18;3.55;;;2.00;;
39482;SDS011;25682;48.438;1.482;2023-02-28T00:48:44;4.18;;;2.33;;
39482;SDS011;25682;48.438;1.482;2023-02-28T00:51:10;3.90;;;2.25;;
39482;SDS011;25682;48.438;1.482;2023-02-28T00:53:35;3.92;;;1.92;;
39482;SDS011;25682;48.438;1.482;2023-02-28T00:56:01;4.70;;;2.25;;
39482;SDS011;25682;48.438;1.482;2023-02-28T00:58:27;3.95;;;2.15;;
39482;SDS011;25682;48.438;1.482;2023-02-28T01:00:53;4.10;;;2.17;;
39482;SDS011;25682;48.438;1.482;2023-02-28T01:03:20;3.15;;;2.15;;
39482;SDS011;25682;48.438;1.482;2023-02-28T01:05:47;4.32;;;2.33;;
39482;SDS011;25682;48.438;1.482;2023-02-28T01:08:13;2.78;;;1.90;;
39482;SDS011;25682;48.438;1.482;2023-02-28T01:10:39;4.18;;;2.00;;
39482;SDS011;25682;48.438;1.482;2023-02-28T01:13:05;2.72;;;1.85;;
39482;SDS011;25682;48.438;1.482;2023-02-28T01:15:31;4.05;;;1.98;;
39482;SDS011;25682;48.438;1.482;2023-02-28T01:17:57;3.22;;;1.65;;
39482;SDS011;25682;48.438;1.482;2023-02-28T01:20:23;3.08;;;2.10;;
39482;SDS011;25682;48.438;1.482;2023-02-28T01:22:49;3.67;;;2.30;;
39482;SDS011;25682;48.438;1.482;2023-02-28T01:25:15;5.40;;;2.10;;
39482;SDS011;25682;48.438;1.482;2023-02-28T01:27:40;3.65;;;1.92;;
39482;SDS011;25682;48.438;1.482;2023-02-28T01:30:07;3.78;;;2.40;;
39482;SDS011;25682;48.438;1.482;2023-02-28T01:32:33;3.38;;;2.05;;
39482;SDS011;25682;48.438;1.482;2023-02-28T01:34:59;3.42;;;2.20;;
39482;SDS011;25682;48.438;1.482;2023-02-28T01:37:25;4.63;;;2.13;;
39482;SDS011;25682;48.438;1.482;2023-02-28T01:39:51;2.60;;;1.80;;
39482;SDS011;25682;48.438;1.482;2023-02-28T01:42:16;3.97;;;2.00;;
39482;SDS011;25682;48.438;1.482;2023-02-28T01:47:40;4.07;;;2.15;;
39482;SDS011;25682;48.438;1.482;2023-02-28T01:50:09;3.28;;;1.83;;
39482;SDS011;25682;48.438;1.482;2023-02-28T01:52:38;4.00;;;1.90;;
39482;SDS011;25682;48.438;1.482;2023-02-28T01:55:05;3.22;;;1.77;;
39482;SDS011;25682;48.438;1.482;2023-02-28T01:57:38;3.08;;;1.77;;
39482;SDS011;25682;48.438;1.482;2023-02-28T02:00:11;3.60;;;1.90;;
39482;SDS011;25682;48.438;1.482;2023-02-28T02:02:41;2.42;;;1.52;;
39482;SDS011;25682;48.438;1.482;2023-02-28T02:05:09;3.00;;;1.90;;
39482;SDS011;25682;48.438;1.482;2023-02-28T02:07:38;2.83;;;1.75;;
39482;SDS011;25682;48.438;1.482;2023-02-28T02:12:43;2.28;;;1.50;;
39482;SDS011;25682;48.438;1.482;2023-02-28T02:15:21;4.53;;;1.80;;
39482;SDS011;25682;48.438;1.482;2023-02-28T02:17:53;3.50;;;1.98;;
39482;SDS011;25682;48.438;1.482;2023-02-28T02:20:37;2.42;;;1.65;;
39482;SDS011;25682;48.438;1.482;2023-02-28T02:23:23;3.30;;;2.28;;
39482;SDS011;25682;48.438;1.482;2023-02-28T02:34:41;2.28;;;1.80;;
39482;SDS011;25682;48.438;1.482;2023-02-28T02:37:48;5.18;;;2.22;;
39482;SDS011;25682;48.438;1.482;2023-02-28T02:43:35;5.10;;;1.73;;
39482;SDS011;25682;48.438;1.482;2023-02-28T02:46:12;2.22;;;1.40;;
39482;SDS011;25682;48.438;1.482;2023-02-28T02:48:43;2.33;;;1.50;;
39482;SDS011;25682;48.438;1.482;2023-02-28T02:51:13;2.00;;;1.63;;
39482;SDS011;25682;48.438;1.482;2023-02-28T02:53:42;2.03;;;1.50;;
39482;SDS011;25682;48.438;1.482;2023-02-28T02:56:14;2.67;;;1.70;;
39482;SDS011;25682;48.438;1.482;2023-02-28T02:58:42;1.92;;;1.45;;
39482;SDS011;25682;48.438;1.482;2023-02-28T03:01:14;3.15;;;1.83;;
39482;SDS011;25682;48.438;1.482;2023-02-28T03:03:52;3.88;;;1.90;;
39482;SDS011;25682;48.438;1.482;2023-02-28T03:06:22;3.58;;;1.70;;
39482;SDS011;25682;48.438;1.482;2023-02-28T03:08:48;2.58;;;1.55;;
39482;SDS011;25682;48.438;1.482;2023-02-28T03:11:14;3.10;;;1.77;;
39482;SDS011;25682;48.438;1.482;2023-02-28T03:27:11;2.47;;;1.90;;
39482;SDS011;25682;48.438;1.482;2023-02-28T03:29:47;2.88;;;1.58;;
39482;SDS011;25682;48.438;1.482;2023-02-28T03:32:24;4.10;;;1.50;;
39482;SDS011;25682;48.438;1.482;2023-02-28T03:35:14;6.35;;;1.77;;
39482;SDS011;25682;48.438;1.482;2023-02-28T03:38:41;3.35;;;1.63;;
39482;SDS011;25682;48.438;1.482;2023-02-28T03:43:50;2.13;;;1.60;;
39482;SDS011;25682;48.438;1.482;2023-02-28T03:46:55;2.90;;;1.75;;
39482;SDS011;25682;48.438;1.482;2023-02-28T03:49:26;2.78;;;1.60;;
39482;SDS011;25682;48.438;1.482;2023-02-28T03:51:57;2.38;;;1.55;;
39482;SDS011;25682;48.438;1.482;2023-02-28T03:54:28;2.25;;;1.40;;
39482;SDS011;25682;48.438;1.482;2023-02-28T03:57:10;2.50;;;1.55;;
39482;SDS011;25682;48.438;1.482;2023-02-28T03:59:44;1.98;;;1.50;;
39482;SDS011;25682;48.438;1.482;2023-02-28T04:02:13;2.15;;;1.35;;
39482;SDS011;25682;48.438;1.482;2023-02-28T04:04:39;2.05;;;1.55;;
39482;SDS011;25682;48.438;1.482;2023-02-28T04:07:13;4.85;;;1.48;;
39482;SDS011;25682;48.438;1.482;2023-02-28T04:09:39;2.15;;;1.33;;
39482;SDS011;25682;48.438;1.482;2023-02-28T04:12:04;3.50;;;1.70;;
39482;SDS011;25682;48.438;1.482;2023-02-28T04:14:30;2.13;;;1.45;;
39482;SDS011;25682;48.438;1.482;2023-02-28T04:16:56;2.13;;;1.48;;
39482;SDS011;25682;48.438;1.482;2023-02-28T04:19:22;2.72;;;1.80;;
39482;SDS011;25682;48.438;1.482;2023-02-28T04:21:51;2.13;;;1.38;;
39482;SDS011;25682;48.438;1.482;2023-02-28T04:24:19;2.70;;;1.63;;
39482;SDS011;25682;48.438;1.482;2023-02-28T04:26:50;2.85;;;1.77;;
39482;SDS011;25682;48.438;1.482;2023-02-28T04:29:18;2.55;;;1.52;;
39482;SDS011;25682;48.438;1.482;2023-02-28T04:31:49;1.75;;;1.30;;
39482;SDS011;25682;48.438;1.482;2023-02-28T04:34:14;6.05;;;1.58;;
39482;SDS011;25682;48.438;1.482;2023-02-28T04:36:40;2.25;;;1.40;;
39482;SDS011;25682;48.438;1.482;2023-02-28T04:39:06;3.70;;;1.42;;
39482;SDS011;25682;48.438;1.482;2023-02-28T04:41:31;5.25;;;2.00;;
39482;SDS011;25682;48.438;1.482;2023-02-28T04:43:57;2.83;;;1.38;;
39482;SDS011;25682;48.438;1.482;2023-02-28T04:46:23;2.47;;;1.73;;
39482;SDS011;25682;48.438;1.482;2023-02-28T04:48:49;3.53;;;1.70;;
39482;SDS011;25682;48.438;1.482;2023-02-28T04:51:15;3.28;;;1.70;;
39482;SDS011;25682;48.438;1.482;2023-02-28T04:53:42;2.42;;;1.75;;
39482;SDS011;25682;48.438;1.482;2023-02-28T04:56:10;3.05;;;1.70;;
39482;SDS011;25682;48.438;1.482;2023-02-28T04:58:37;2.83;;;1.80;;
39482;SDS011;25682;48.438;1.482;2023-02-28T05:01:06;2.78;;;1.40;;
39482;SDS011;25682;48.438;1.482;2023-02-28T05:03:43;2.17;;;1.50;;
39482;SDS011;25682;48.438;1.482;2023-02-28T05:06:09;2.85;;;1.73;;
39482;SDS011;25682;48.438;1.482;2023-02-28T05:08:36;2.30;;;1.50;;
39482;SDS011;25682;48.438;1.482;2023-02-28T05:11:02;3.15;;;1.83;;
39482;SDS011;25682;48.438;1.482;2023-02-28T05:13:28;2.10;;;1.58;;
39482;SDS011;25682;48.438;1.482;2023-02-28T05:15:54;1.73;;;1.40;;
39482;SDS011;25682;48.438;1.482;2023-02-28T05:18:20;2.78;;;1.60;;
39482;SDS011;25682;48.438;1.482;2023-02-28T05:20:46;2.40;;;1.48;;
39482;SDS011;25682;48.438;1.482;2023-02-28T05:23:12;3.30;;;1.55;;
39482;SDS011;25682;48.438;1.482;2023-02-28T05:25:39;2.78;;;1.80;;
39482;SDS011;25682;48.438;1.482;2023-02-28T05:28:05;2.33;;;1.70;;
39482;SDS011;25682;48.438;1.482;2023-02-28T05:30:32;2.45;;;1.55;;
39482;SDS011;25682;48.438;1.482;2023-02-28T05:32:58;2.38;;;1.70;;
39482;SDS011;25682;48.438;1.482;2023-02-28T05:35:24;2.88;;;1.83;;
39482;SDS011;25682;48.438;1.482;2023-02-28T05:37:50;2.28;;;1.40;;
39482;SDS011;25682;48.438;1.482;2023-02-28T05:40:17;3.03;;;1.52;;
39482;SDS011;25682;48.438;1.482;2023-02-28T05:42:44;2.17;;;1.40;;
39482;SDS011;25682;48.438;1.482;2023-02-28T05:45:10;1.98;;;1.30;;
39482;SDS011;25682;48.438;1.482;2023-02-28T05:47:36;2.33;;;1.30;;
39482;SDS011;25682;48.438;1.482;2023-02-28T05:50:02;2.75;;;1.30;;
39482;SDS011;25682;48.438;1.482;2023-02-28T05:52:28;1.77;;;1.20;;
39482;SDS011;25682;48.438;1.482;2023-02-28T05:54:56;2.00;;;1.20;;
39482;SDS011;25682;48.438;1.482;2023-02-28T05:57:22;3.55;;;1.50;;
39482;SDS011;25682;48.438;1.482;2023-02-28T05:59:48;1.40;;;1.15;;
39482;SDS011;25682;48.438;1.482;2023-02-28T06:02:15;4.45;;;1.63;;
39482;SDS011;25682;48.438;1.482;2023-02-28T06:04:42;1.50;;;1.30;;
39482;SDS011;25682;48.438;1.482;2023-02-28T06:07:08;4.15;;;1.80;;
39482;SDS011;25682;48.438;1.482;2023-02-28T06:09:34;1.67;;;1.35;;
39482;SDS011;25682;48.438;1.482;2023-02-28T06:12:01;3.08;;;1.75;;
39482;SDS011;25682;48.438;1.482;2023-02-28T06:14:28;2.38;;;1.60;;
39482;SDS011;25682;48.438;1.482;2023-02-28T06:16:56;3.67;;;1.40;;
39482;SDS011;25682;48.438;1.482;2023-02-28T06:19:22;2.17;;;1.55;;
39482;SDS011;25682;48.438;1.482;2023-02-28T06:21:50;2.30;;;1.40;;
39482;SDS011;25682;48.438;1.482;2023-02-28T06:24:17;3.72;;;1.38;;
39482;SDS011;25682;48.438;1.482;2023-02-28T06:26:46;3.83;;;1.88;;
39482;SDS011;25682;48.438;1.482;2023-02-28T06:29:12;2.10;;;1.50;;
39482;SDS011;25682;48.438;1.482;2023-02-28T06:31:41;3.28;;;1.65;;
39482;SDS011;25682;48.438;1.482;2023-02-28T06:34:08;4.85;;;1.60;;
39482;SDS011;25682;48.438;1.482;2023-02-28T06:36:36;6.47;;;1.73;;
39482;SDS011;25682;48.438;1.482;2023-02-28T06:39:06;5.28;;;2.08;;
39482;SDS011;25682;48.438;1.482;2023-02-28T06:41:32;3.70;;;1.85;;
39482;SDS011;25682;48.438;1.482;2023-02-28T06:44:21;5.43;;;2.30;;
39482;SDS011;25682;48.438;1.482;2023-02-28T06:46:47;5.53;;;2.00;;
39482;SDS011;25682;48.438;1.482;2023-02-28T06:49:13;3.38;;;1.83;;
39482;SDS011;25682;48.438;1.482;2023-02-28T06:51:40;2.85;;;2.10;;
39482;SDS011;25682;48.438;1.482;2023-02-28T06:54:10;6.28;;;1.98;;
39482;SDS011;25682;48.438;1.482;2023-02-28T06:56:36;6.72;;;2.13;;
39482;SDS011;25682;48.438;1.482;2023-02-28T06:59:02;4.82;;;2.00;;
39482;SDS011;25682;48.438;1.482;2023-02-28T07:01:29;5.25;;;1.90;;
39482;SDS011;25682;48.438;1.482;2023-02-28T07:03:56;5.63;;;1.75;;
39482;SDS011;25682;48.438;1.482;2023-02-28T07:06:22;3.88;;;2.22;;
39482;SDS011;25682;48.438;1.482;2023-02-28T07:08:48;2.60;;;1.98;;
39482;SDS011;25682;48.438;1.482;2023-02-28T07:11:15;3.78;;;2.35;;
39482;SDS011;25682;48.438;1.482;2023-02-28T07:13:41;4.75;;;1.85;;
39482;SDS011;25682;48.438;1.482;2023-02-28T07:16:07;2.95;;;2.10;;
39482;SDS011;25682;48.438;1.482;2023-02-28T07:18:35;3.40;;;1.98;;
39482;SDS011;25682;48.438;1.482;2023-02-28T07:21:02;4.88;;;2.15;;
39482;SDS011;25682;48.438;1.482;2023-02-28T07:23:29;2.75;;;1.83;;
39482;SDS011;25682;48.438;1.482;2023-02-28T07:25:54;4.28;;;2.22;;
39482;SDS011;25682;48.438;1.482;2023-02-28T07:28:20;3.65;;;1.98;;
39482;SDS011;25682;48.438;1.482;2023-02-28T07:30:45;4.25;;;1.90;;
39482;SDS011;25682;48.438;1.482;2023-02-28T07:33:11;4.55;;;1.95;;
39482;SDS011;25682;48.438;1.482;2023-02-28T07:35:37;3.58;;;2.20;;
39482;SDS011;25682;48.438;1.482;2023-02-28T07:38:03;3.28;;;2.65;;
39482;SDS011;25682;48.438;1.482;2023-02-28T07:40:28;5.07;;;2.70;;
39482;SDS011;25682;48.438;1.482;2023-02-28T07:42:54;4.35;;;2.67;;
39482;SDS011;25682;48.438;1.482;2023-02-28T07:45:20;4.45;;;2.60;;
39482;SDS011;25682;48.438;1.482;2023-02-28T07:47:45;12.30;;;2.92;;
39482;SDS011;25682;48.438;1.482;2023-02-28T07:50:12;4.80;;;2.15;;
39482;SDS011;25682;48.438;1.482;2023-02-28T07:52:39;3.67;;;2.40;;
39482;SDS011;25682;48.438;1.482;2023-02-28T07:55:06;3.85;;;2.20;;
39482;SDS011;25682;48.438;1.482;2023-02-28T07:57:34;4.35;;;2.08;;
39482;SDS011;25682;48.438;1.482;2023-02-28T08:00:00;7.07;;;2.92;;
39482;SDS011;25682;48.438;1.482;2023-02-28T08:02:26;3.83;;;2.28;;
39482;SDS011;25682;48.438;1.482;2023-02-28T08:04:51;4.70;;;2.17;;
39482;SDS011;25682;48.438;1.482;2023-02-28T08:07:17;3.72;;;2.28;;
39482;SDS011;25682;48.438;1.482;2023-02-28T08:09:43;4.05;;;2.40;;
39482;SDS011;25682;48.438;1.482;2023-02-28T08:12:10;3.70;;;2.40;;
39482;SDS011;25682;48.438;1.482;2023-02-28T08:14:36;6.10;;;3.05;;
39482;SDS011;25682;48.438;1.482;2023-02-28T08:17:03;4.38;;;1.98;;
39482;SDS011;25682;48.438;1.482;2023-02-28T08:19:28;5.82;;;2.78;;
39482;SDS011;25682;48.438;1.482;2023-02-28T08:21:54;3.55;;;2.38;;
39482;SDS011;25682;48.438;1.482;2023-02-28T08:24:21;5.22;;;2.22;;
39482;SDS011;25682;48.438;1.482;2023-02-28T08:26:46;3.63;;;2.22;;
39482;SDS011;25682;48.438;1.482;2023-02-28T08:29:12;3.50;;;2.30;;
39482;SDS011;25682;48.438;1.482;2023-02-28T08:31:38;3.45;;;2.53;;
39482;SDS011;25682;48.438;1.482;2023-02-28T08:34:07;3.55;;;2.20;;
39482;SDS011;25682;48.438;1.482;2023-02-28T08:36:33;2.67;;;1.77;;
39482;SDS011;25682;48.438;1.482;2023-02-28T08:38:59;3.47;;;2.10;;
39482;SDS011;25682;48.438;1.482;2023-02-28T08:41:25;4.43;;;2.13;;
39482;SDS011;25682;48.438;1.482;2023-02-28T08:43:51;8.80;;;2.40;;
39482;SDS011;25682;48.438;1.482;2023-02-28T08:46:17;2.10;;;1.70;;
39482;SDS011;25682;48.438;1.482;2023-02-28T08:48:43;4.90;;;2.50;;
39482;SDS011;25682;48.438;1.482;2023-02-28T08:51:10;3.67;;;2.53;;
39482;SDS011;25682;48.438;1.482;2023-02-28T08:53:38;4.68;;;2.28;;
39482;SDS011;25682;48.438;1.482;2023-02-28T08:56:05;9.02;;;2.25;;
39482;SDS011;25682;48.438;1.482;2023-02-28T08:58:33;4.07;;;2.13;;
39482;SDS011;25682;48.438;1.482;2023-02-28T09:00:59;10.10;;;2.58;;
39482;SDS011;25682;48.438;1.482;2023-02-28T09:03:26;6.63;;;2.45;;
39482;SDS011;25682;48.438;1.482;2023-02-28T09:05:56;10.82;;;2.90;;
39482;SDS011;25682;48.438;1.482;2023-02-28T09:08:24;6.25;;;2.08;;
39482;SDS011;25682;48.438;1.482;2023-02-28T09:10:50;6.60;;;2.42;;
39482;SDS011;25682;48.438;1.482;2023-02-28T09:13:17;7.88;;;3.35;;
39482;SDS011;25682;48.438;1.482;2023-02-28T09:15:43;4.47;;;2.10;;
39482;SDS011;25682;48.438;1.482;2023-02-28T09:18:09;3.90;;;2.58;;
39482;SDS011;25682;48.438;1.482;2023-02-28T09:20:37;7.00;;;2.00;;
39482;SDS011;25682;48.438;1.482;2023-02-28T09:23:07;3.65;;;2.05;;
39482;SDS011;25682;48.438;1.482;2023-02-28T09:25:33;4.22;;;2.17;;
39482;SDS011;25682;48.438;1.482;2023-02-28T09:28:00;3.15;;;2.20;;
39482;SDS011;25682;48.438;1.482;2023-02-28T09:30:25;4.13;;;1.95;;
39482;SDS011;25682;48.438;1.482;2023-02-28T09:32:51;4.65;;;2.13;;
39482;SDS011;25682;48.438;1.482;2023-02-28T09:35:19;10.25;;;2.30;;
39482;SDS011;25682;48.438;1.482;2023-02-28T09:37:49;9.30;;;5.53;;
39482;SDS011;25682;48.438;1.482;2023-02-28T09:40:16;4.28;;;2.97;;
39482;SDS011;25682;48.438;1.482;2023-02-28T09:42:44;5.15;;;2.67;;
39482;SDS011;25682;48.438;1.482;2023-02-28T09:45:33;5.05;;;2.53;;
39482;SDS011;25682;48.438;1.482;2023-02-28T09:48:16;3.60;;;2.30;;
39482;SDS011;25682;48.438;1.482;2023-02-28T09:50:48;10.38;;;2.60;;
39482;SDS011;25682;48.438;1.482;2023-02-28T09:53:27;7.32;;;2.03;;
39482;SDS011;25682;48.438;1.482;2023-02-28T09:56:37;4.40;;;2.20;;
39482;SDS011;25682;48.438;1.482;2023-02-28T10:10:19;5.45;;;2.17;;
39482;SDS011;25682;48.438;1.482;2023-02-28T10:12:55;16.92;;;2.55;;
39482;SDS011;25682;48.438;1.482;2023-02-28T10:15:24;6.78;;;1.95;;
39482;SDS011;25682;48.438;1.482;2023-02-28T10:17:56;8.70;;;3.17;;
39482;SDS011;25682;48.438;1.482;2023-02-28T10:20:25;5.70;;;1.80;;
39482;SDS011;25682;48.438;1.482;2023-02-28T10:25:44;6.80;;;2.63;;
39482;SDS011;25682;48.438;1.482;2023-02-28T10:28:17;8.50;;;2.10;;
39482;SDS011;25682;48.438;1.482;2023-02-28T10:30:44;6.88;;;2.30;;
39482;SDS011;25682;48.438;1.482;2023-02-28T10:33:21;13.48;;;2.58;;
39482;SDS011;25682;48.438;1.482;2023-02-28T10:35:55;6.20;;;1.90;;
39482;SDS011;25682;48.438;1.482;2023-02-28T10:38:26;4.15;;;1.88;;
39482;SDS011;25682;48.438;1.482;2023-02-28T10:41:07;4.90;;;1.67;;
39482;SDS011;25682;48.438;1.482;2023-02-28T10:43:39;7.25;;;1.67;;
39482;SDS011;25682;48.438;1.482;2023-02-28T10:51:37;3.65;;;1.75;;
39482;SDS011;25682;48.438;1.482;2023-02-28T10:54:04;7.55;;;1.95;;
39482;SDS011;25682;48.438;1.482;2023-02-28T10:56:31;7.88;;;2.28;;
39482;SDS011;25682;48.438;1.482;2023-02-28T11:01:35;3.13;;;1.58;;
39482;SDS011;25682;48.438;1.482;2023-02-28T11:07:19;4.40;;;1.58;;
39482;SDS011;25682;48.438;1.482;2023-02-28T11:09:51;7.28;;;1.73;;
39482;SDS011;25682;48.438;1.482;2023-02-28T11:17:52;2.97;;;2.17;;
39482;SDS011;25682;48.438;1.482;2023-02-28T11:20:21;5.68;;;1.80;;
39482;SDS011;25682;48.438;1.482;2023-02-28T11:22:50;5.93;;;2.05;;
39482;SDS011;25682;48.438;1.482;2023-02-28T11:25:21;3.83;;;1.80;;
39482;SDS011;25682;48.438;1.482;2023-02-28T11:27:50;4.43;;;1.80;;
39482;SDS011;25682;48.438;1.482;2023-02-28T11:30:29;3.60;;;1.90;;
39482;SDS011;25682;48.438;1.482;2023-02-28T11:32:58;6.20;;;1.88;;
39482;SDS011;25682;48.438;1.482;2023-02-28T11:35:31;2.85;;;1.67;;
39482;SDS011;25682;48.438;1.482;2023-02-28T11:38:00;5.53;;;1.85;;
39482;SDS011;25682;48.438;1.482;2023-02-28T11:48:08;4.93;;;1.90;;
39482;SDS011;25682;48.438;1.482;2023-02-28T11:55:39;4.75;;;1.30;;
39482;SDS011;25682;48.438;1.482;2023-02-28T12:00:57;3.70;;;1.60;;
39482;SDS011;25682;48.438;1.482;2023-02-28T12:16:37;1.92;;;1.30;;
39482;SDS011;25682;48.438;1.482;2023-02-28T12:19:15;7.40;;;1.40;;
39482;SDS011;25682;48.438;1.482;2023-02-28T12:21:47;1.77;;;1.10;;
39482;SDS011;25682;48.438;1.482;2023-02-28T12:26:44;4.57;;;1.83;;
39482;SDS011;25682;48.438;1.482;2023-02-28T12:29:28;4.40;;;1.98;;
39482;SDS011;25682;48.438;1.482;2023-02-28T12:34:34;2.78;;;1.55;;
39482;SDS011;25682;48.438;1.482;2023-02-28T12:37:04;4.45;;;1.50;;
39482;SDS011;25682;48.438;1.482;2023-02-28T12:39:33;3.20;;;1.48;;
39482;SDS011;25682;48.438;1.482;2023-02-28T12:42:01;5.68;;;1.40;;
39482;SDS011;25682;48.438;1.482;2023-02-28T12:44:32;3.25;;;1.45;;
39482;SDS011;25682;48.438;1.482;2023-02-28T12:47:08;2.60;;;1.40;;
39482;SDS011;25682;48.438;1.482;2023-02-28T12:49:41;2.67;;;1.08;;
39482;SDS011;25682;48.438;1.482;2023-02-28T12:52:09;1.02;;;0.85;;
39482;SDS011;25682;48.438;1.482;2023-02-28T12:54:46;1.95;;;1.17;;
39482;SDS011;25682;48.438;1.482;2023-02-28T12:57:27;3.25;;;1.27;;
39482;SDS011;25682;48.438;1.482;2023-02-28T12:59:58;1.77;;;1.23;;
39482;SDS011;25682;48.438;1.482;2023-02-28T13:09:59;1.83;;;1.23;;
39482;SDS011;25682;48.438;1.482;2023-02-28T13:12:26;3.45;;;1.52;;
39482;SDS011;25682;48.438;1.482;2023-02-28T13:15:12;2.15;;;1.10;;
39482;SDS011;25682;48.438;1.482;2023-02-28T13:17:44;1.35;;;0.90;;
39482;SDS011;25682;48.438;1.482;2023-02-28T13:20:20;2.13;;;1.10;;
39482;SDS011;25682;48.438;1.482;2023-02-28T13:22:48;3.45;;;1.50;;
39482;SDS011;25682;48.438;1.482;2023-02-28T13:27:50;1.05;;;0.95;;
39482;SDS011;25682;48.438;1.482;2023-02-28T13:35:46;2.13;;;1.08;;
39482;SDS011;25682;48.438;1.482;2023-02-28T13:38:15;2.78;;;1.30;;
39482;SDS011;25682;48.438;1.482;2023-02-28T13:40:41;1.83;;;1.00;;
39482;SDS011;25682;48.438;1.482;2023-02-28T13:43:08;1.67;;;1.00;;
39482;SDS011;25682;48.438;1.482;2023-02-28T13:45:34;3.33;;;1.20;;
39482;SDS011;25682;48.438;1.482;2023-02-28T13:48:14;1.60;;;1.17;;
39482;SDS011;25682;48.438;1.482;2023-02-28T13:50:41;1.38;;;1.15;;
39482;SDS011;25682;48.438;1.482;2023-02-28T13:58:10;1.83;;;1.00;;
39482;SDS011;25682;48.438;1.482;2023-02-28T14:03:30;1.83;;;1.33;;
39482;SDS011;25682;48.438;1.482;2023-02-28T14:06:16;2.20;;;1.50;;
39482;SDS011;25682;48.438;1.482;2023-02-28T14:08:46;1.55;;;1.08;;
39482;SDS011;25682;48.438;1.482;2023-02-28T14:11:24;1.98;;;1.10;;
39482;SDS011;25682;48.438;1.482;2023-02-28T14:13:50;1.30;;;0.82;;
39482;SDS011;25682;48.438;1.482;2023-02-28T14:16:17;1.70;;;1.00;;
39482;SDS011;25682;48.438;1.482;2023-02-28T14:18:55;1.42;;;1.10;;
39482;SDS011;25682;48.438;1.482;2023-02-28T14:31:51;1.15;;;0.88;;
39482;SDS011;25682;48.438;1.482;2023-02-28T14:37:04;1.73;;;1.08;;
39482;SDS011;25682;48.438;1.482;2023-02-28T14:39:32;2.08;;;1.20;;
39482;SDS011;25682;48.438;1.482;2023-02-28T14:42:00;1.50;;;1.10;;
39482;SDS011;25682;48.438;1.482;2023-02-28T14:44:29;3.10;;;0.98;;
39482;SDS011;25682;48.438;1.482;2023-02-28T14:46:56;3.78;;;1.13;;
39482;SDS011;25682;48.438;1.482;2023-02-28T14:51:49;4.63;;;1.20;;
39482;SDS011;25682;48.438;1.482;2023-02-28T14:54:16;1.85;;;1.35;;
39482;SDS011;25682;48.438;1.482;2023-02-28T14:56:48;1.15;;;1.00;;
39482;SDS011;25682;48.438;1.482;2023-02-28T14:59:28;2.47;;;1.00;;
39482;SDS011;25682;48.438;1.482;2023-02-28T15:04:38;1.58;;;1.20;;
39482;SDS011;25682;48.438;1.482;2023-02-28T15:07:07;4.85;;;0.90;;
39482;SDS011;25682;48.438;1.482;2023-02-28T15:09:33;1.77;;;1.23;;
39482;SDS011;25682;48.438;1.482;2023-02-28T15:11:59;3.17;;;1.30;;
39482;SDS011;25682;48.438;1.482;2023-02-28T15:14:25;1.40;;;1.20;;
39482;SDS011;25682;48.438;1.482;2023-02-28T15:16:57;2.42;;;1.00;;
39482;SDS011;25682;48.438;1.482;2023-02-28T15:19:29;9.52;;;1.48;;
39482;SDS011;25682;48.438;1.482;2023-02-28T15:21:58;4.68;;;0.93;;
39482;SDS011;25682;48.438;1.482;2023-02-28T15:24:31;3.42;;;1.00;;
39482;SDS011;25682;48.438;1.482;2023-02-28T15:27:00;6.20;;;1.20;;
39482;SDS011;25682;48.438;1.482;2023-02-28T15:29:30;4.85;;;1.10;;
39482;SDS011;25682;48.438;1.482;2023-02-28T15:32:01;2.58;;;1.20;;
39482;SDS011;25682;48.438;1.482;2023-02-28T15:34:33;2.00;;;0.88;;
39482;SDS011;25682;48.438;1.482;2023-02-28T15:39:56;3.42;;;1.10;;
39482;SDS011;25682;48.438;1.482;2023-02-28T15:42:29;6.40;;;1.45;;
39482;SDS011;25682;48.438;1.482;2023-02-28T15:44:54;5.28;;;1.52;;
39482;SDS011;25682;48.438;1.482;2023-02-28T15:47:23;5.28;;;2.13;;
39482;SDS011;25682;48.438;1.482;2023-02-28T15:50:05;4.50;;;2.35;;
39482;SDS011;25682;48.438;1.482;2023-02-28T15:52:38;11.25;;;6.43;;
39482;SDS011;25682;48.438;1.482;2023-02-28T15:55:27;8.02;;;4.10;;
39482;SDS011;25682;48.438;1.482;2023-02-28T15:57:54;8.13;;;5.30;;
39482;SDS011;25682;48.438;1.482;2023-02-28T16:00:22;8.10;;;2.63;;
39482;SDS011;25682;48.438;1.482;2023-02-28T16:02:49;16.02;;;1.98;;
39482;SDS011;25682;48.438;1.482;2023-02-28T16:05:19;10.07;;;2.83;;
39482;SDS011;25682;48.438;1.482;2023-02-28T16:07:53;5.25;;;2.45;;
39482;SDS011;25682;48.438;1.482;2023-02-28T16:10:23;7.20;;;2.25;;
39482;SDS011;25682;48.438;1.482;2023-02-28T16:12:52;3.95;;;1.83;;
39482;SDS011;25682;48.438;1.482;2023-02-28T16:15:23;8.38;;;2.00;;
39482;SDS011;25682;48.438;1.482;2023-02-28T16:17:51;6.55;;;2.20;;
39482;SDS011;25682;48.438;1.482;2023-02-28T16:20:24;5.07;;;1.80;;
39482;SDS011;25682;48.438;1.482;2023-02-28T16:22:51;4.18;;;1.55;;
39482;SDS011;25682;48.438;1.482;2023-02-28T16:25:21;5.43;;;1.75;;
39482;SDS011;25682;48.438;1.482;2023-02-28T16:27:49;3.20;;;1.38;;
39482;SDS011;25682;48.438;1.482;2023-02-28T16:30:22;2.72;;;1.55;;
39482;SDS011;25682;48.438;1.482;2023-02-28T16:32:49;7.07;;;2.08;;
39482;SDS011;25682;48.438;1.482;2023-02-28T16:35:15;3.83;;;1.38;;
39482;SDS011;25682;48.438;1.482;2023-02-28T16:37:42;4.82;;;1.70;;
39482;SDS011;25682;48.438;1.482;2023-02-28T16:40:15;4.22;;;1.45;;
39482;SDS011;25682;48.438;1.482;2023-02-28T16:42:42;3.83;;;1.70;;
39482;SDS011;25682;48.438;1.482;2023-02-28T16:45:21;13.77;;;2.03;;
39482;SDS011;25682;48.438;1.482;2023-02-28T16:47:48;2.28;;;1.38;;
39482;SDS011;25682;48.438;1.482;2023-02-28T16:50:17;7.40;;;2.03;;
39482;SDS011;25682;48.438;1.482;2023-02-28T16:52:44;11.55;;;2.17;;
39482;SDS011;25682;48.438;1.482;2023-02-28T16:55:10;4.20;;;1.65;;
39482;SDS011;25682;48.438;1.482;2023-02-28T16:57:36;3.63;;;1.70;;
39482;SDS011;25682;48.438;1.482;2023-02-28T17:00:04;3.47;;;1.50;;
39482;SDS011;25682;48.438;1.482;2023-02-28T17:02:30;7.55;;;1.35;;
39482;SDS011;25682;48.438;1.482;2023-02-28T17:04:56;2.67;;;1.60;;
39482;SDS011;25682;48.438;1.482;2023-02-28T17:07:22;3.65;;;1.50;;
39482;SDS011;25682;48.438;1.482;2023-02-28T17:09:48;4.63;;;1.40;;
39482;SDS011;25682;48.438;1.482;2023-02-28T17:12:14;2.63;;;1.85;;
39482;SDS011;25682;48.438;1.482;2023-02-28T17:14:40;2.75;;;1.70;;
39482;SDS011;25682;48.438;1.482;2023-02-28T17:17:06;4.85;;;1.30;;
39482;SDS011;25682;48.438;1.482;2023-02-28T17:19:32;1.92;;;1.10;;
39482;SDS011;25682;48.438;1.482;2023-02-28T17:22:00;3.60;;;1.50;;